CheckWX is a tool to help pilots better visualize weather data.  It is not intended as a substitute for an official pre-flight weather briefing.

14:16:18 UTC

FACT METAR
Cape Town International Airport
Cape Town, South Africa
Current

1 hour ago

FACT 221300Z 13017KT 9999 FEW040 25/10 Q1021 NOSIG
Observed
Apr-22 @ 13:00 UTC
Wind
  • 130° at 17 KTS
Visibility
10,000+ meters
Flight Rules
VFR
Cloud Levels
  • Few at 4,000' AGL
Temperature
25°C / 77°F
Dewpoint
10°C / 50°F
Humidity
39%
Altimeter
30.15" Hg
Pressure
1020.92 hPa
Previous

2 hours ago

FACT 221200Z 14017KT 9999 FEW040 24/11 Q1022 NOSIG
Observed
Apr-22 @ 12:00 UTC
Wind
  • 140° at 17 KTS
Visibility
10,000+ meters
Flight Rules
VFR
Cloud Levels
  • Few at 4,000' AGL
Temperature
24°C / 75°F
Dewpoint
11°C / 52°F
Humidity
44%
Altimeter
30.18" Hg
Pressure
1021.92 hPa
Previous

3 hours ago

FACT 221100Z 14016KT 9999 FEW035 24/11 Q1023 NOSIG
Observed
Apr-22 @ 11:00 UTC
Wind
  • 140° at 16 KTS
Visibility
10,000+ meters
Flight Rules
VFR
Cloud Levels
  • Few at 3,500' AGL
Temperature
24°C / 75°F
Dewpoint
11°C / 52°F
Humidity
44%
Altimeter
30.21" Hg
Pressure
1022.92 hPa